Time;durP1;ratioP1;P1;durP2;ratioP2;P2;SDS_P1;SDS_P2;PMS_P1;PMS_P2;Temp;Humidity;BMP_temperature;BMP_pressure;BME280_temperature;BME280_humidity;BME280_pressure;Samples;Min_cycle;Max_cycle;Signal;HPM_P1;HPM_P2
2023/10/05 00:02:10;;;;;;;45.60;29.27;;;;;;;16.42;100.00;95320.63;5039996;28;20060;-84
2023/10/05 00:04:42;;;;;;;49.28;31.30;;;;;;;16.63;100.00;95305.31;5056174;28;20025;-84
2023/10/05 00:07:10;;;;;;;46.30;30.67;;;;;;;16.86;100.00;95299.50;5057271;28;20027;-84
2023/10/05 00:09:37;;;;;;;52.25;30.33;;;;;;;17.03;100.00;95301.69;5056286;28;20024;-84
2023/10/05 00:12:08;;;;;;;43.33;28.98;;;;;;;17.16;100.00;95306.28;5056217;28;20025;-84
2023/10/05 00:14:37;;;;;;;47.28;28.23;;;;;;;17.27;100.00;95314.06;5056065;28;20025;-84
2023/10/05 00:17:09;;;;;;;44.70;28.30;;;;;;;17.40;100.00;95310.69;5056157;28;20374;-84
2023/10/05 00:19:39;;;;;;;45.97;27.60;;;;;;;17.43;100.00;95312.00;5057212;28;20039;-84
2023/10/05 00:22:04;;;;;;;41.72;27.95;;;;;;;17.32;100.00;95308.72;5057277;28;20032;-84
2023/10/05 00:24:34;;;;;;;52.30;29.30;;;;;;;17.45;100.00;95307.19;5072797;28;20025;-83
2023/10/05 00:27:01;;;;;;;45.97;28.30;;;;;;;17.38;100.00;95307.56;5055885;28;20029;-84
2023/10/05 00:29:54;;;;;;;49.53;29.10;;;;;;;17.41;100.00;95308.84;5056714;28;20079;-84
2023/10/05 00:32:25;;;;;;;51.13;32.55;;;;;;;17.49;100.00;95306.34;5055633;28;20036;-84
2023/10/05 00:35:10;;;;;;;60.55;33.90;;;;;;;17.47;100.00;95303.19;5040670;28;20102;-84
2023/10/05 00:37:35;;;;;;;55.65;32.60;;;;;;;17.50;100.00;95304.47;5041735;28;20044;-83
2023/10/05 00:40:03;;;;;;;55.40;32.25;;;;;;;17.59;100.00;95307.25;5056822;28;20028;-83
2023/10/05 00:42:28;;;;;;;55.53;33.40;;;;;;;17.69;100.00;95298.38;5058228;28;20033;-84
2023/10/05 00:44:54;;;;;;;62.80;32.50;;;;;;;17.63;100.00;95295.00;5058170;28;20025;-84
2023/10/05 00:47:21;;;;;;;57.13;32.33;;;;;;;17.65;100.00;95291.00;5055914;28;20424;-84
2023/10/05 00:49:59;;;;;;;62.40;34.45;;;;;;;17.70;100.00;95290.09;5056823;28;20157;-84
2023/10/05 00:52:24;;;;;;;56.10;33.47;;;;;;;17.73;100.00;95296.69;5057136;28;20460;-84
2023/10/05 00:54:54;;;;;;;56.65;32.65;;;;;;;17.65;100.00;95298.94;5040396;28;20033;-84
2023/10/05 00:57:23;;;;;;;56.85;33.20;;;;;;;17.62;100.00;95299.50;5056688;28;20055;-84
2023/10/05 01:00:26;;;;;;;52.25;33.10;;;;;;;17.62;100.00;95296.09;5040438;28;20036;-84
2023/10/05 01:02:46;;;;;;;57.53;32.60;;;;;;;17.69;100.00;95301.00;5056363;28;20057;-84
2023/10/05 01:05:16;;;;;;;56.05;33.45;;;;;;;17.76;100.00;95298.75;5041393;28;20327;-83
2023/10/05 01:10:43;;;;;;;60.45;34.95;;;;;;;17.82;100.00;95292.31;5049200;28;20032;-83
2023/10/05 01:13:00;;;;;;;55.58;31.05;;;;;;;17.79;100.00;95295.56;5034757;28;20136;-83
2023/10/05 01:15:33;;;;;;;55.80;30.33;;;;;;;17.81;100.00;95283.56;5036700;28;20421;-83
2023/10/05 01:17:58;;;;;;;58.53;32.55;;;;;;;17.33;100.00;95279.28;5036495;28;20036;-83
2023/10/05 01:20:25;;;;;;;48.35;30.67;;;;;;;17.54;100.00;95278.97;5036358;28;20037;-83
2023/10/05 01:22:54;;;;;;;56.97;33.80;;;;;;;17.49;100.00;95273.75;5019976;28;20422;-84
2023/10/05 01:25:20;;;;;;;60.13;33.67;;;;;;;17.23;100.00;95269.63;5036294;28;20033;-83
2023/10/05 01:27:47;;;;;;;61.55;32.45;;;;;;;17.47;100.00;95273.25;5036202;28;20029;-84
2023/10/05 01:30:13;;;;;;;53.78;32.08;;;;;;;17.56;100.00;95266.22;5036284;28;20029;-84
2023/10/05 01:32:42;;;;;;;47.78;30.33;;;;;;;17.63;100.00;95269.28;5036213;28;20029;-84
2023/10/05 01:35:15;;;;;;;54.00;31.52;;;;;;;17.73;100.00;95263.06;5036210;28;20037;-84
2023/10/05 01:37:45;;;;;;;55.35;31.75;;;;;;;17.67;100.00;95266.84;5036152;28;20116;-84
2023/10/05 01:40:23;;;;;;;47.13;31.08;;;;;;;17.62;100.00;95264.28;5036064;28;20079;-84
2023/10/05 01:42:51;;;;;;;54.65;32.22;;;;;;;17.59;100.00;95267.53;5037234;28;20075;-84
2023/10/05 01:45:22;;;;;;;54.83;32.08;;;;;;;17.53;100.00;95267.59;5036516;28;20449;-84
2023/10/05 01:47:49;;;;;;;48.70;31.15;;;;;;;17.56;100.00;95263.56;5035922;28;20039;-84
2023/10/05 01:50:19;;;;;;;58.33;32.90;;;;;;;17.52;100.00;95265.25;5036302;28;20036;-84
2023/10/05 01:52:48;;;;;;;51.25;31.98;;;;;;;17.57;100.00;95262.50;5035887;28;20324;-84
2023/10/05 01:55:14;;;;;;;56.20;32.50;;;;;;;17.69;100.00;95261.25;5035783;28;20029;-84
2023/10/05 01:57:44;;;;;;;56.92;31.80;;;;;;;17.71;100.00;95257.22;5019198;28;20025;-84
2023/10/05 02:00:14;;;;;;;48.75;29.88;;;;;;;17.80;100.00;95260.03;5036210;28;20072;-84
2023/10/05 02:02:42;;;;;;;55.55;31.83;;;;;;;17.72;100.00;95255.38;5036083;28;20030;-84
2023/10/05 02:05:09;;;;;;;52.10;31.48;;;;;;;17.62;100.00;95259.75;5035861;28;20435;-84
2023/10/05 02:07:36;;;;;;;54.17;31.55;;;;;;;17.53;100.00;95253.56;5035477;28;20467;-84
2023/10/05 02:10:08;;;;;;;60.33;34.05;;;;;;;17.20;100.00;95254.31;5035602;28;20115;-84
2023/10/05 02:12:33;;;;;;;53.33;32.63;;;;;;;17.26;100.00;95246.28;5035745;28;20025;-81
2023/10/05 02:15:01;;;;;;;58.10;32.55;;;;;;;17.14;100.00;95238.78;5050484;28;20040;-81
2023/10/05 02:17:26;;;;;;;54.17;32.60;;;;;;;17.15;100.00;95237.72;5055249;28;20033;-81
2023/10/05 02:19:52;;;;;;;56.22;31.10;;;;;;;17.27;100.00;95243.34;5056410;28;20044;-81
2023/10/05 02:22:22;;;;;;;52.35;31.35;;;;;;;16.90;100.00;95250.19;5055211;28;20135;-81
2023/10/05 02:24:51;;;;;;;49.65;30.27;;;;;;;17.02;100.00;95253.25;5039543;28;20086;-81
2023/10/05 02:27:17;;;;;;;51.20;29.52;;;;;;;17.26;100.00;95252.38;5039280;28;20401;-81
2023/10/05 02:29:44;;;;;;;44.83;28.52;;;;;;;17.31;100.00;95254.94;5038889;28;20086;-81
2023/10/05 02:32:11;;;;;;;50.53;30.70;;;;;;;17.05;100.00;95255.31;5055251;28;20116;-81
2023/10/05 02:37:22;;;;;;;48.08;29.63;;;;;;;17.24;100.00;95260.59;5055315;28;20460;-81
2023/10/05 02:39:48;;;;;;;56.55;32.20;;;;;;;17.22;100.00;95257.47;5038855;28;20055;-81
2023/10/05 02:42:15;;;;;;;53.13;29.50;;;;;;;17.16;100.00;95255.16;5055213;28;20039;-81
2023/10/05 02:44:42;;;;;;;47.72;30.00;;;;;;;17.13;100.00;95258.41;5055445;28;20025;-81
2023/10/05 02:47:08;;;;;;;59.10;33.65;;;;;;;16.87;100.00;95262.16;5055136;28;20348;-81
2023/10/05 02:49:39;;;;;;;49.30;30.90;;;;;;;16.68;100.00;95268.19;5055110;28;20029;-81
2023/10/05 02:52:06;;;;;;;48.35;31.70;;;;;;;16.77;100.00;95263.06;5055995;28;20414;-81
2023/10/05 02:54:31;;;;;;;53.90;30.25;;;;;;;16.94;100.00;95267.09;5054863;28;20033;-81
2023/10/05 02:56:57;;;;;;;47.97;28.52;;;;;;;17.05;100.00;95271.19;5055008;28;20033;-81
2023/10/05 02:59:26;;;;;;;45.78;29.17;;;;;;;17.09;100.00;95263.47;5054896;28;20044;-81
2023/10/05 03:01:53;;;;;;;49.15;28.50;;;;;;;17.02;100.00;95263.06;5038700;28;20174;-81
2023/10/05 03:04:21;;;;;;;49.90;29.08;;;;;;;17.07;100.00;95269.06;5055001;28;20154;-81
2023/10/05 03:06:48;;;;;;;50.20;30.55;;;;;;;17.01;100.00;95272.84;5054851;28;20037;-81
2023/10/05 03:09:14;;;;;;;57.65;32.67;;;;;;;17.04;100.00;95276.78;5054865;28;20061;-81
2023/10/05 03:11:46;;;;;;;59.83;34.72;;;;;;;17.14;100.00;95281.16;5040394;28;20114;-81
2023/10/05 03:14:12;;;;;;;57.58;33.70;;;;;;;17.07;100.00;95287.59;5058690;28;20033;-81
2023/10/05 03:17:03;;;;;;;59.20;34.03;;;;;;;16.43;100.00;95292.31;5058547;28;20068;-81
2023/10/05 03:19:24;;;;;;;51.17;30.73;;;;;;;16.34;100.00;95289.47;5057996;28;20037;-81
2023/10/05 03:21:51;;;;;;;49.60;30.50;;;;;;;16.61;100.00;95274.91;5042200;28;20031;-81
2023/10/05 03:24:19;;;;;;;43.05;29.10;;;;;;;16.93;100.00;95271.59;5058725;28;20124;-81
2023/10/05 03:26:45;;;;;;;44.58;28.73;;;;;;;17.03;100.00;95278.63;5058534;28;20025;-81
2023/10/05 03:29:13;;;;;;;44.33;28.77;;;;;;;17.15;100.00;95280.06;5058406;28;20052;-81
2023/10/05 03:31:52;;;;;;;48.95;28.48;;;;;;;17.16;100.00;95279.81;5042333;28;20025;-81
2023/10/05 03:34:18;;;;;;;58.00;32.00;;;;;;;17.16;100.00;95279.81;5058397;28;20040;-81
2023/10/05 03:36:47;;;;;;;55.88;33.13;;;;;;;17.13;100.00;95276.94;5059451;28;20033;-81
2023/10/05 03:39:12;;;;;;;57.88;32.65;;;;;;;17.04;100.00;95271.50;5058238;28;20063;-81
2023/10/05 03:41:39;;;;;;;54.47;32.33;;;;;;;16.34;100.00;95276.25;5041815;28;20143;-81
2023/10/05 03:44:07;;;;;;;62.80;37.75;;;;;;;16.12;100.00;95274.91;5058285;28;20029;-81
2023/10/05 03:46:34;;;;;;;63.25;36.35;;;;;;;16.54;100.00;95273.41;5058016;28;20051;-81
2023/10/05 03:49:02;;;;;;;64.47;35.70;;;;;;;16.77;100.00;95278.16;5041890;28;20036;-81
2023/10/05 03:51:31;;;;;;;61.50;35.00;;;;;;;16.92;100.00;95272.66;5058201;28;20029;-81
2023/10/05 03:53:56;;;;;;;61.30;35.92;;;;;;;17.13;100.00;95271.63;5041486;28;20032;-81
2023/10/05 03:56:25;;;;;;;61.45;36.47;;;;;;;16.74;100.00;95266.28;5041570;28;20342;-81
2023/10/05 03:58:52;;;;;;;71.07;39.75;;;;;;;16.18;100.00;95279.06;5057963;28;20449;-81
2023/10/05 04:01:18;;;;;;;67.95;38.00;;;;;;;16.13;100.00;95281.78;5057639;28;20051;-81
2023/10/05 04:03:46;;;;;;;72.28;41.08;;;;;;;16.15;100.00;95284.94;5057810;28;20029;-81
2023/10/05 04:06:17;;;;;;;62.15;35.35;;;;;;;16.75;100.00;95277.66;5057753;28;20036;-81
2023/10/05 04:08:51;;;;;;;63.10;33.83;;;;;;;16.92;100.00;95269.22;5041974;28;20075;-81
2023/10/05 04:11:17;;;;;;;57.00;33.60;;;;;;;16.96;100.00;95272.91;5057645;28;20430;-81
2023/10/05 04:13:43;;;;;;;57.75;31.92;;;;;;;16.98;100.00;95267.31;5057506;28;20029;-81
2023/10/05 04:16:21;;;;;;;61.90;34.33;;;;;;;16.98;100.00;95272.59;5057550;28;20036;-81
2023/10/05 04:18:50;;;;;;;61.95;35.20;;;;;;;17.03;100.00;95278.63;5042593;28;20094;-81
2023/10/05 04:21:18;;;;;;;58.30;33.88;;;;;;;16.91;100.00;95270.28;5041408;28;20134;-81
2023/10/05 04:23:46;;;;;;;67.82;39.67;;;;;;;16.52;100.00;95283.47;5041085;28;20041;-81
2023/10/05 04:26:11;;;;;;;58.92;35.50;;;;;;;16.85;100.00;95277.50;5057343;28;20036;-81
2023/10/05 04:28:51;;;;;;;65.32;37.20;;;;;;;16.53;100.00;95269.19;5056660;28;20028;-81
2023/10/05 04:31:21;;;;;;;70.30;40.15;;;;;;;15.89;100.00;95276.44;5057147;28;20442;-81
2023/10/05 04:33:47;;;;;;;74.20;41.53;;;;;;;15.80;100.00;95284.19;5058724;28;20036;-81
2023/10/05 04:36:13;;;;;;;68.10;39.80;;;;;;;16.01;100.00;95276.06;5058091;28;20033;-81
2023/10/05 04:38:38;;;;;;;62.15;37.42;;;;;;;16.04;100.00;95268.38;5058247;28;20083;-81
2023/10/05 04:41:05;;;;;;;67.40;38.45;;;;;;;15.96;100.00;95258.41;5057301;28;20123;-81
2023/10/05 04:43:30;;;;;;;77.28;40.15;;;;;;;15.55;100.00;95267.47;5057484;28;20029;-81
2023/10/05 04:45:56;;;;;;;66.35;40.60;;;;;;;15.36;100.00;95264.69;5057291;28;20349;-81
2023/10/05 04:48:23;;;;;;;79.68;44.75;;;;;;;15.13;100.00;95262.47;5057295;28;20035;-81
2023/10/05 04:50:50;;;;;;;79.22;46.30;;;;;;;15.01;100.00;95267.28;5058042;28;20350;-81
2023/10/05 04:53:17;;;;;;;79.30;42.70;;;;;;;15.16;100.00;95271.69;5056922;28;20029;-81
2023/10/05 04:55:42;;;;;;;71.65;42.22;;;;;;;15.35;100.00;95263.91;5057875;28;20029;-81
2023/10/05 04:58:17;;;;;;;72.45;40.95;;;;;;;15.43;100.00;95259.09;5056704;28;20111;-81
2023/10/05 05:03:32;;;;;;;78.40;42.70;;;;;;;15.43;100.00;95262.53;5056737;28;20428;-81
2023/10/05 05:08:26;;;;;;;80.78;44.00;;;;;;;15.03;100.00;95267.81;5044216;28;20033;-81
2023/10/05 05:10:52;;;;;;;76.15;44.15;;;;;;;15.17;100.00;95277.75;5036420;28;20033;-81
2023/10/05 05:13:20;;;;;;;76.60;44.15;;;;;;;15.36;100.00;95272.63;5036310;28;20025;-81
2023/10/05 05:15:45;;;;;;;73.85;42.85;;;;;;;15.46;100.00;95269.09;5041384;28;20079;-81
2023/10/05 05:18:14;;;;;;;70.63;40.00;;;;;;;15.52;100.00;95260.88;5056050;28;20381;-81
2023/10/05 05:20:41;;;;;;;73.80;40.70;;;;;;;15.48;100.00;95256.41;5056497;28;20035;-81
2023/10/05 05:23:07;;;;;;;74.25;42.95;;;;;;;15.22;100.00;95265.31;5056180;28;20048;-81
2023/10/05 05:25:32;;;;;;;77.25;45.28;;;;;;;14.79;100.00;95268.47;5039776;28;20423;-81
2023/10/05 05:28:01;;;;;;;90.53;49.40;;;;;;;14.62;100.00;95275.88;5056043;28;20040;-81
2023/10/05 05:30:27;;;;;;;86.40;47.47;;;;;;;14.70;100.00;95278.78;5056118;28;20032;-81
2023/10/05 05:32:56;;;;;;;81.97;44.20;;;;;;;14.91;100.00;95276.06;5057070;28;20032;-81
2023/10/05 05:35:22;;;;;;;77.43;43.75;;;;;;;15.13;100.00;95280.13;5046511;28;20040;-81
2023/10/05 05:37:47;;;;;;;77.45;44.38;;;;;;;15.35;100.00;95278.97;5054352;28;20029;-80
2023/10/05 05:40:13;;;;;;;67.40;41.60;;;;;;;15.51;100.00;95285.69;5049828;28;20064;-81
2023/10/05 05:42:44;;;;;;;102.15;46.55;;;;;;;15.43;100.00;95290.78;5037457;28;20124;-81
2023/10/05 05:45:18;;;;;;;83.93;45.10;;;;;;;14.81;100.00;95297.19;5048204;28;20128;-81
2023/10/05 05:47:45;;;;;;;73.35;41.83;;;;;;;15.11;100.00;95300.75;5039993;28;20052;-81
2023/10/05 05:50:18;;;;;;;71.07;41.40;;;;;;;15.32;100.00;95293.50;5056324;28;20026;-81
2023/10/05 05:52:46;;;;;;;80.03;43.90;;;;;;;14.72;100.00;95289.06;5055835;28;20355;-81
2023/10/05 05:55:20;;;;;;;88.68;46.13;;;;;;;14.62;100.00;95289.88;5055508;28;20123;-81
2023/10/05 05:57:46;;;;;;;86.55;46.33;;;;;;;14.94;100.00;95296.63;5054901;28;20029;-81
2023/10/05 06:00:12;;;;;;;84.45;43.78;;;;;;;15.23;100.00;95297.78;5050806;28;20087;-81
2023/10/05 06:02:42;;;;;;;82.35;45.30;;;;;;;15.40;100.00;95298.19;5055862;28;20088;-81
2023/10/05 06:05:09;;;;;;;72.20;41.33;;;;;;;15.58;100.00;95300.47;5072362;28;20347;-81
2023/10/05 06:07:39;;;;;;;72.43;43.00;;;;;;;15.69;100.00;95299.28;5037762;28;20342;-81
2023/10/05 06:10:12;;;;;;;76.45;42.97;;;;;;;15.76;100.00;95296.34;5043958;28;20338;-81
2023/10/05 06:12:48;;;;;;;69.45;40.72;;;;;;;15.62;100.00;95290.91;5048510;28;20025;-81
2023/10/05 06:15:13;;;;;;;72.32;41.60;;;;;;;15.82;100.00;95297.88;5039192;28;20025;-81
2023/10/05 06:17:40;;;;;;;67.03;40.92;;;;;;;15.92;100.00;95289.09;5038427;28;20036;-82
2023/10/05 06:20:15;;;;;;;70.80;40.38;;;;;;;15.97;100.00;95284.56;5055117;28;20450;-81
2023/10/05 06:22:45;;;;;;;70.25;42.00;;;;;;;16.17;100.00;95277.50;5055291;28;20021;-81
2023/10/05 06:25:17;;;;;;;66.15;39.63;;;;;;;16.31;100.00;95284.75;5055486;28;20024;-81
2023/10/05 06:27:44;;;;;;;56.85;32.63;;;;;;;15.75;100.00;95289.47;5055329;28;20082;-81
2023/10/05 06:30:15;;;;;;;64.60;36.38;;;;;;;15.66;100.00;95297.22;5055264;28;20025;-81
2023/10/05 06:32:44;;;;;;;72.65;41.38;;;;;;;15.61;100.00;95290.13;5055082;28;20078;-81
2023/10/05 06:35:13;;;;;;;74.90;42.95;;;;;;;15.67;100.00;95299.59;5054297;28;20028;-79
2023/10/05 06:37:40;;;;;;;69.53;40.35;;;;;;;16.17;100.00;95298.66;5042852;28;20028;-80
2023/10/05 06:40:12;;;;;;;68.32;40.03;;;;;;;16.60;100.00;95300.59;5055291;28;20525;-79
2023/10/05 06:42:42;;;;;;;70.00;36.23;;;;;;;16.81;100.00;95301.13;5055699;28;20171;-79
2023/10/05 06:45:13;;;;;;;55.67;36.05;;;;;;;16.95;100.00;95297.78;5056362;28;20278;-79
2023/10/05 06:47:39;;;;;;;62.83;36.90;;;;;;;17.13;100.00;95301.53;5059147;28;20029;-79
2023/10/05 06:50:09;;;;;;;55.92;34.72;;;;;;;17.23;100.00;95304.03;5059470;28;20036;-79
2023/10/05 06:52:46;;;;;;;61.33;35.17;;;;;;;17.50;100.00;95305.25;5043370;28;20434;-79
2023/10/05 06:55:23;;;;;;;63.80;37.22;;;;;;;17.67;100.00;95304.75;5038515;28;20069;-79
2023/10/05 06:57:53;;;;;;;55.30;34.38;;;;;;;17.77;100.00;95303.00;5042927;28;20448;-79
2023/10/05 07:00:22;;;;;;;53.60;33.25;;;;;;;17.87;100.00;95310.00;5059057;28;20032;-80
2023/10/05 07:02:49;;;;;;;57.92;32.80;;;;;;;17.86;100.00;95309.22;5058693;28;20086;-79
2023/10/05 07:05:16;;;;;;;62.47;35.50;;;;;;;17.48;100.00;95315.34;5058994;28;20021;-79
2023/10/05 07:07:41;;;;;;;56.85;34.35;;;;;;;17.66;100.00;95316.41;5042506;28;20071;-80
2023/10/05 07:10:14;;;;;;;54.35;32.90;;;;;;;17.49;100.00;95319.56;5056391;28;20059;-79
2023/10/05 07:12:42;;;;;;;51.92;32.92;;;;;;;17.29;100.00;95318.00;5046660;28;20418;-79
2023/10/05 07:15:08;;;;;;;54.20;33.08;;;;;;;17.41;100.00;95325.50;5042037;28;20060;-80
2023/10/05 07:17:34;;;;;;;54.10;33.38;;;;;;;17.27;100.00;95328.09;5054955;28;20339;-81
2023/10/05 07:19:59;;;;;;;58.05;34.95;;;;;;;17.31;100.00;95329.09;5038563;28;20036;-81
2023/10/05 07:22:25;;;;;;;48.22;32.33;;;;;;;17.64;100.00;95328.38;5038980;28;20454;-82
2023/10/05 07:24:50;;;;;;;58.38;33.47;;;;;;;17.56;100.00;95327.16;5055168;28;20021;-82
2023/10/05 07:27:19;;;;;;;50.22;29.98;;;;;;;18.02;100.00;95331.00;5054963;28;20025;-81
2023/10/05 07:29:45;;;;;;;52.88;31.20;;;;;;;18.04;100.00;95330.69;5055983;28;20021;-81
2023/10/05 07:32:14;;;;;;;44.88;29.25;;;;;;;18.04;100.00;95325.38;5058423;28;20104;-82
2023/10/05 07:34:43;;;;;;;55.80;31.33;;;;;;;18.03;100.00;95337.88;5059400;28;20033;-81
2023/10/05 07:37:12;;;;;;;46.42;28.60;;;;;;;18.41;100.00;95341.47;5058551;28;20029;-82
2023/10/05 07:39:42;;;;;;;46.45;30.02;;;;;;;18.48;100.00;95341.88;5058269;28;20442;-82
2023/10/05 07:42:08;;;;;;;48.38;29.70;;;;;;;18.41;100.00;95344.09;5058212;28;20091;-82
2023/10/05 07:44:36;;;;;;;50.65;27.40;;;;;;;18.55;100.00;95336.94;5058194;28;20028;-82
2023/10/05 07:47:02;;;;;;;54.00;28.27;;;;;;;18.54;100.00;95345.22;5058185;28;20115;-82
2023/10/05 07:49:27;;;;;;;46.80;28.05;;;;;;;18.61;100.00;95345.59;5057966;28;20071;-82
2023/10/05 07:51:53;;;;;;;47.33;27.63;;;;;;;18.78;100.00;95345.78;5057853;28;20458;-81
2023/10/05 07:54:18;;;;;;;45.05;28.48;;;;;;;18.59;100.00;95348.56;5057941;28;20079;-82
2023/10/05 07:56:45;;;;;;;45.33;26.88;;;;;;;18.51;100.00;95355.34;5040734;28;20032;-82
2023/10/05 07:59:13;;;;;;;44.63;26.17;;;;;;;18.99;100.00;95364.03;5057659;28;20025;-81
2023/10/05 08:01:39;;;;;;;46.28;27.88;;;;;;;18.76;100.00;95363.88;5057858;28;20067;-82
2023/10/05 08:04:05;;;;;;;44.25;25.88;;;;;;;18.81;100.00;95357.69;5057347;28;20462;-81
2023/10/05 08:06:47;;;;;;;48.38;27.42;;;;;;;18.85;100.00;95360.56;5057820;28;20029;-82
2023/10/05 08:09:15;;;;;;;41.05;26.63;;;;;;;18.87;100.00;95356.53;5057614;28;20028;-82
2023/10/05 08:11:43;;;;;;;40.08;25.90;;;;;;;19.17;100.00;95364.19;5058178;28;20484;-81
2023/10/05 08:14:11;;;;;;;45.63;24.80;;;;;;;19.39;100.00;95362.69;5057562;28;20124;-81
2023/10/05 08:16:37;;;;;;;38.17;25.15;;;;;;;19.35;100.00;95359.84;5041055;28;20044;-81
2023/10/05 08:19:05;;;;;;;37.67;21.85;;;;;;;19.85;100.00;95364.31;5057635;28;20029;-81
2023/10/05 08:21:34;;;;;;;40.05;23.60;;;;;;;20.06;100.00;95369.97;5057437;28;20055;-81
2023/10/05 08:24:01;;;;;;;35.63;21.85;;;;;;;20.39;100.00;95368.91;5058644;28;20017;-81
2023/10/05 08:26:28;;;;;;;45.03;23.38;;;;;;;20.48;100.00;95374.25;5048473;28;20017;-82
2023/10/05 08:28:55;;;;;;;30.88;20.30;;;;;;;20.84;100.00;95376.00;5054122;28;20032;-81
2023/10/05 08:31:23;;;;;;;31.25;20.00;;;;;;;20.89;100.00;95378.53;5038561;28;20021;-82
2023/10/05 08:33:50;;;;;;;34.72;21.88;;;;;;;21.12;100.00;95372.31;5039263;28;20029;-82
2023/10/05 08:36:17;;;;;;;36.28;21.65;;;;;;;21.42;100.00;95372.53;5040762;28;20028;-82
2023/10/05 08:38:47;;;;;;;32.38;20.70;;;;;;;21.56;100.00;95367.84;5040809;28;20021;-82
2023/10/05 08:41:18;;;;;;;32.08;20.42;;;;;;;21.46;100.00;95357.47;5041329;28;20461;-82
2023/10/05 08:43:47;;;;;;;37.72;21.52;;;;;;;21.24;100.00;95364.53;5040403;28;20032;-82
2023/10/05 08:46:14;;;;;;;35.15;21.60;;;;;;;21.58;100.00;95357.66;5041008;28;20032;-82
2023/10/05 08:48:41;;;;;;;35.65;20.50;;;;;;;21.65;100.00;95365.19;5040499;28;20036;-82
2023/10/05 08:51:12;;;;;;;33.13;20.20;;;;;;;21.81;100.00;95362.84;5056992;28;20358;-81
2023/10/05 08:53:44;;;;;;;28.73;19.52;;;;;;;21.57;100.00;95356.06;5040854;28;20029;-82
2023/10/05 08:56:15;;;;;;;26.35;18.25;;;;;;;21.36;100.00;95360.44;5056907;28;20397;-82
2023/10/05 08:58:45;;;;;;;30.00;19.48;;;;;;;21.54;100.00;95364.72;5057094;28;20083;-82
2023/10/05 09:01:31;;;;;;;33.25;20.55;;;;;;;21.23;100.00;95357.63;5040262;28;20106;-82
2023/10/05 09:07:14;;;;;;;31.17;18.48;;;;;;;21.48;100.00;95360.59;5047359;28;20446;-82
2023/10/05 09:09:52;;;;;;;28.40;19.23;;;;;;;21.55;100.00;95360.94;5035757;28;20036;-82
2023/10/05 09:12:35;;;;;;;31.52;18.88;;;;;;;21.68;100.00;95351.22;5036716;28;20501;-82
2023/10/05 09:20:41;;;;;;;23.88;16.55;;;;;;;22.28;100.00;95348.03;5038430;28;20040;-82
2023/10/05 09:23:09;;;;;;;29.65;17.30;;;;;;;21.32;100.00;95345.06;5039694;28;20453;-82
2023/10/05 09:25:47;;;;;;;26.83;15.70;;;;;;;21.68;100.00;95342.47;5056824;28;20028;-82
2023/10/05 09:28:34;;;;;;;24.00;15.10;;;;;;;21.93;100.00;95340.88;5056079;28;20358;-82
2023/10/05 09:31:07;;;;;;;26.48;16.38;;;;;;;21.79;100.00;95349.03;5114880;27;20385;-82
2023/10/05 09:33:36;;;;;;;27.05;16.08;;;;;;;21.53;100.00;95333.00;5114896;28;20036;-82
2023/10/05 09:36:22;;;;;;;20.33;13.38;;;;;;;21.80;100.00;95341.81;5113413;28;20024;-82
2023/10/05 09:38:48;;;;;;;20.10;13.38;;;;;;;22.10;100.00;95342.72;5105200;28;20039;-82
2023/10/05 09:41:18;;;;;;;28.67;15.90;;;;;;;21.84;100.00;95348.09;5101868;28;20024;-82
2023/10/05 09:43:44;;;;;;;21.50;14.02;;;;;;;21.98;100.00;95343.34;5109049;28;20345;-82
2023/10/05 09:46:10;;;;;;;23.48;15.70;;;;;;;22.19;100.00;95348.03;5075274;28;20383;-82
2023/10/05 09:48:39;;;;;;;24.67;14.65;;;;;;;21.79;100.00;95353.59;5092804;28;20051;-82
2023/10/05 09:51:13;;;;;;;30.73;17.13;;;;;;;22.23;100.00;95350.84;5075979;28;20435;-82
2023/10/05 09:53:42;;;;;;;27.85;15.93;;;;;;;22.35;100.00;95345.63;5108931;28;20063;-82
2023/10/05 09:56:11;;;;;;;25.60;16.00;;;;;;;22.39;100.00;95351.13;5094881;28;20039;-82
2023/10/05 09:58:39;;;;;;;24.30;14.80;;;;;;;22.86;100.00;95353.00;5112969;28;20032;-81
2023/10/05 10:01:14;;;;;;;23.85;14.32;;;;;;;23.05;100.00;95347.25;5112740;28;20035;-81
2023/10/05 10:03:45;;;;;;;33.85;16.52;;;;;;;22.97;100.00;95350.75;5112853;28;20024;-81
2023/10/05 10:06:13;;;;;;;31.70;14.18;;;;;;;22.86;100.00;95340.44;5096741;28;20031;-81
2023/10/05 10:08:55;;;;;;;29.95;18.42;;;;;;;22.28;100.00;95335.44;5112498;28;20035;-81
2023/10/05 10:11:24;;;;;;;24.90;15.98;;;;;;;22.81;100.00;95340.63;5095954;28;20090;-81
2023/10/05 10:14:13;;;;;;;30.55;16.25;;;;;;;22.40;100.00;95334.00;5112628;28;20067;-81
2023/10/05 10:16:42;;;;;;;23.05;14.35;;;;;;;22.69;100.00;95330.63;5112713;28;20085;-82
2023/10/05 10:19:23;;;;;;;28.60;15.95;;;;;;;22.90;100.00;95329.13;5112390;28;20062;-81
2023/10/05 10:21:57;;;;;;;26.52;15.35;;;;;;;22.74;100.00;95329.66;5097210;28;20035;-81
2023/10/05 10:24:28;;;;;;;24.00;13.77;;;;;;;22.99;100.00;95332.50;5112551;28;20436;-81
2023/10/05 10:27:08;;;;;;;25.35;15.20;;;;;;;22.99;100.00;95329.84;5113511;28;20020;-81
2023/10/05 10:29:44;;;;;;;26.00;16.05;;;;;;;22.67;100.00;95329.38;5112174;28;20084;-81
2023/10/05 10:32:18;;;;;;;24.67;14.68;;;;;;;23.13;100.00;95321.59;5113334;28;20027;-82
2023/10/05 10:34:55;;;;;;;23.05;14.93;;;;;;;22.67;100.00;95322.16;5112322;28;20030;-82
2023/10/05 10:37:36;;;;;;;33.55;18.48;;;;;;;22.12;100.00;95316.50;5112209;28;20035;-81
2023/10/05 10:40:11;;;;;;;30.33;15.43;;;;;;;22.55;100.00;95320.16;5112223;28;20455;-81
2023/10/05 10:45:36;;;;;;;26.83;15.90;;;;;;;22.96;100.00;95299.22;5098851;28;20076;-81
2023/10/05 10:48:08;;;;;;;26.07;16.30;;;;;;;23.10;100.00;95295.53;5098373;28;20110;-81
2023/10/05 10:50:37;;;;;;;24.60;15.68;;;;;;;22.97;100.00;95291.97;5082464;28;20024;-81
2023/10/05 10:53:17;;;;;;;25.58;16.80;;;;;;;23.05;100.00;95291.13;5093962;28;20028;-82
2023/10/05 10:55:58;;;;;;;26.25;15.82;;;;;;;23.04;100.00;95278.09;5082630;28;20100;-81
2023/10/05 10:58:30;;;;;;;23.65;14.05;;;;;;;23.28;100.00;95278.28;5101024;28;20035;-82
2023/10/05 11:00:59;;;;;;;25.80;14.10;;;;;;;22.87;100.00;95271.75;5077918;28;20021;-82
2023/10/05 11:03:26;;;;;;;28.33;14.65;;;;;;;23.20;100.00;95270.28;5061539;28;20118;-82
2023/10/05 11:05:54;;;;;;;23.75;14.93;;;;;;;23.06;100.00;95273.22;5078014;28;20028;-82
2023/10/05 11:08:20;;;;;;;26.73;14.75;;;;;;;23.51;100.00;95269.88;5077652;28;20020;-81
2023/10/05 11:11:09;;;;;;;29.23;15.35;;;;;;;23.68;100.00;95270.88;5083391;28;20020;-81
2023/10/05 11:13:39;;;;;;;24.85;13.90;;;;;;;23.96;100.00;95263.00;5097971;28;20028;-81
2023/10/05 11:16:09;;;;;;;24.35;14.30;;;;;;;23.83;100.00;95272.13;5097853;28;20106;-81
2023/10/05 11:18:38;;;;;;;22.85;13.20;;;;;;;24.23;98.89;95268.09;5095288;28;20020;-81
2023/10/05 11:21:13;;;;;;;22.85;11.98;;;;;;;24.09;100.00;95274.53;5097344;28;20116;-81
2023/10/05 11:23:46;;;;;;;25.70;12.45;;;;;;;24.63;97.55;95267.44;5097651;28;20024;-81
2023/10/05 11:26:19;;;;;;;22.38;14.13;;;;;;;24.26;94.48;95260.19;5081100;28;20024;-81
2023/10/05 11:28:49;;;;;;;21.42;13.52;;;;;;;24.22;96.86;95264.66;5081334;28;20027;-81
2023/10/05 11:31:21;;;;;;;19.30;11.45;;;;;;;24.73;92.47;95262.75;5097375;28;20028;-81
2023/10/05 11:33:47;;;;;;;22.20;12.80;;;;;;;24.47;94.69;95255.84;5084203;28;20028;-81
2023/10/05 11:36:21;;;;;;;25.40;15.32;;;;;;;24.03;93.38;95259.81;5086270;28;20342;-81
2023/10/05 11:38:56;;;;;;;20.50;13.82;;;;;;;23.70;100.00;95241.88;5089009;28;20026;-80
2023/10/05 11:41:23;;;;;;;20.13;12.20;;;;;;;24.08;97.56;95246.22;5097405;28;20497;-81
2023/10/05 11:43:53;;;;;;;21.30;13.27;;;;;;;23.88;99.71;95241.69;5097228;28;20421;-81